This is the latest recevied weather packets stored in our database for station/object IU2EVW-13. If no packets are shown the sender has not sent any weather packets the latest 10 day(s).
| Time | Temp. | Humidity | Pressure | Rain* | Wind** | Luminosity | Snow |
|---|---|---|---|---|---|---|---|
| 1787424340 | 19.44° C | 53% | 1018.2 hPa | - | - | - | - |
| 1787423139 | 20° C | 50% | 1017.9 hPa | - | - | - | - |
| 1787421938 | 21.11° C | 48% | 1017.5 hPa | - | - | - | - |
| 1787420736 | 25.56° C | 35% | 1016.9 hPa | - | - | - | - |
| 1787419535 | 26.67° C | 34% | 1016.8 hPa | - | - | - | - |
| 1787418334 | 24.44° C | 39% | 1016.7 hPa | - | - | - | - |
| 1787417132 | 26.67° C | 35% | 1016.5 hPa | - | - | - | - |
| 1787415931 | 27.78° C | 33% | 1016.4 hPa | - | - | - | - |
| 1787414730 | 27.22° C | 31% | 1016.4 hPa | - | - | - | - |
| 1787413529 | 25.56° C | 32% | 1016.4 hPa | - | - | - | - |
| 1787412328 | 28.89° C | 19% | 1016.1 hPa | - | - | - | - |
| 1787411123 | 32.22° C | 22% | 1016.1 hPa | - | - | - | - |
| 1787409922 | 30° C | 18% | 1016.1 hPa | - | - | - | - |
| 1787408721 | 28.33° C | 22% | 1016.1 hPa | - | - | - | - |
| 1787407519 | 27.22° C | 25% | 1016.2 hPa | - | - | - | - |
| 1787406318 | 27.78° C | 25% | 1016.1 hPa | - | - | - | - |
| 1787405117 | 27.22° C | 23% | 1016.2 hPa | - | - | - | - |
| 1787403915 | 27.78° C | 25% | 1016.2 hPa | - | - | - | - |
| 1787402714 | 27.22° C | 29% | 1016.4 hPa | - | - | - | - |
| 1787401513 | 26.11° C | 29% | 1016.6 hPa | - | - | - | - |
| 1787400311 | 25.56° C | 27% | 1016.5 hPa | - | - | - | - |
| 1787399110 | 25.56° C | 34% | 1016.8 hPa | - | - | - | - |
| 1787397909 | 24.44° C | 38% | 1017.1 hPa | - | - | - | - |
| 1787396707 | 23.89° C | 39% | 1017.2 hPa | - | - | - | - |
| 1787395506 | 23.33° C | 40% | 1017.2 hPa | - | - | - | - |
* Rain since midnight (hover to see other rain measurements)
** Current wind speed in m/s (hover to see current wind gust speed)